createdAt,value
2018-08-24T00:00:09.208Z,3.57
2018-08-24T00:02:39.497Z,4.10
2018-08-24T00:05:09.444Z,4.10
2018-08-24T00:07:39.409Z,5.83
2018-08-24T00:10:09.598Z,4.03
2018-08-24T00:12:39.343Z,4.10
2018-08-24T00:15:09.314Z,4.80
2018-08-24T00:17:39.617Z,3.83
2018-08-24T00:20:09.249Z,4.10
2018-08-24T00:22:38.990Z,3.57
2018-08-24T00:25:09.477Z,4.70
2018-08-24T00:27:39.179Z,5.17
2018-08-24T00:30:10.166Z,4.07
2018-08-24T00:32:40.513Z,4.20
2018-08-24T00:35:10.170Z,5.83
2018-08-24T00:37:40.134Z,8.20
2018-08-24T00:40:10.310Z,4.40
2018-08-24T00:42:40.139Z,3.67
2018-08-24T00:45:10.170Z,4.17
2018-08-24T00:47:40.040Z,4.97
2018-08-24T00:50:09.897Z,3.90
2018-08-24T00:52:40.325Z,4.00
2018-08-24T00:55:10.646Z,4.57
2018-08-24T00:57:40.411Z,4.90
2018-08-24T01:00:10.443Z,3.57
2018-08-24T01:02:40.528Z,5.67
2018-08-24T01:05:10.561Z,3.70
2018-08-24T01:07:45.652Z,4.93
2018-08-24T01:10:20.614Z,4.93
2018-08-24T01:12:51.000Z,7.03
2018-08-24T01:15:20.866Z,4.07
2018-08-24T01:18:23.671Z,4.13
2018-08-24T01:20:55.567Z,3.67
2018-08-24T01:23:26.702Z,4.87
2018-08-24T01:25:56.682Z,4.60
2018-08-24T01:28:28.965Z,3.83
2018-08-24T01:31:09.305Z,4.00
2018-08-24T01:33:39.449Z,6.10
2018-08-24T01:36:09.189Z,4.93
2018-08-24T01:38:39.012Z,5.17
2018-08-24T01:41:09.525Z,3.87
2018-08-24T01:43:39.095Z,5.53
2018-08-24T01:46:10.448Z,4.57
2018-08-24T01:48:41.193Z,4.73
2018-08-24T01:51:10.957Z,3.67
2018-08-24T01:53:40.839Z,4.10
2018-08-24T01:56:11.221Z,4.10
2018-08-24T01:58:40.891Z,5.10
2018-08-24T02:01:10.574Z,3.77
2018-08-24T02:03:40.899Z,4.10
2018-08-24T02:06:10.513Z,3.77
2018-08-24T02:08:40.431Z,5.80
2018-08-24T02:11:15.465Z,6.20
2018-08-24T02:13:50.115Z,3.87
2018-08-24T02:16:20.323Z,4.10
2018-08-24T02:18:55.433Z,4.47
2018-08-24T02:21:30.744Z,5.13
2018-08-24T02:24:01.547Z,3.90
2018-08-24T02:26:31.654Z,4.93
2018-08-24T02:29:01.673Z,4.20
2018-08-24T02:31:40.438Z,4.10
2018-08-24T02:34:10.708Z,4.27
2018-08-24T02:36:41.016Z,4.53
2018-08-24T02:39:16.713Z,4.17
2018-08-24T02:41:46.755Z,4.13
2018-08-24T02:44:16.907Z,4.20
2018-08-24T02:46:47.233Z,4.80
2018-08-24T02:49:17.199Z,4.77
2018-08-24T02:51:47.169Z,5.63
2018-08-24T02:54:17.034Z,5.00
2018-08-24T02:56:47.255Z,6.73
2018-08-24T02:59:17.157Z,4.03
2018-08-24T03:01:47.053Z,4.60
2018-08-24T03:04:17.438Z,5.30
2018-08-24T03:06:47.490Z,5.87
2018-08-24T03:09:17.488Z,6.13
2018-08-24T03:11:47.552Z,4.10
2018-08-24T03:14:17.602Z,6.00
2018-08-24T03:16:53.064Z,4.40
2018-08-24T03:19:23.885Z,3.80
2018-08-24T03:21:53.947Z,4.00
2018-08-24T03:24:24.855Z,5.63
2018-08-24T03:26:54.950Z,4.60
2018-08-24T03:29:25.198Z,3.53
2018-08-24T03:31:56.075Z,6.90
2018-08-24T03:34:26.463Z,4.27
2018-08-24T03:36:56.834Z,4.93
2018-08-24T03:39:26.788Z,4.80
2018-08-24T03:41:56.804Z,5.10
2018-08-24T03:44:26.933Z,4.30
2018-08-24T03:46:56.687Z,4.03
2018-08-24T03:49:26.740Z,4.53
2018-08-24T03:51:57.086Z,5.17
2018-08-24T03:54:27.005Z,4.90
2018-08-24T03:56:58.135Z,4.23
2018-08-24T03:59:28.226Z,6.80
2018-08-24T04:01:58.166Z,4.17
2018-08-24T04:04:27.856Z,5.63
2018-08-24T04:06:58.364Z,4.27
2018-08-24T04:09:28.340Z,4.80
2018-08-24T04:11:58.349Z,4.87
2018-08-24T04:14:28.429Z,5.50
2018-08-24T04:17:03.314Z,5.93
2018-08-24T04:19:33.803Z,6.50
2018-08-24T04:22:03.875Z,4.70
2018-08-24T04:24:33.844Z,4.27
2018-08-24T04:27:04.287Z,4.27
2018-08-24T04:29:34.240Z,4.77
2018-08-24T04:32:04.941Z,5.10
2018-08-24T04:34:35.164Z,4.87
2018-08-24T04:37:05.083Z,4.43
2018-08-24T04:39:34.882Z,7.93
2018-08-24T04:42:04.949Z,5.23
2018-08-24T04:44:34.837Z,6.53
2018-08-24T04:47:04.775Z,6.33
2018-08-24T04:49:34.982Z,4.87
2018-08-24T04:52:05.006Z,5.93
2018-08-24T04:54:35.030Z,5.43
2018-08-24T04:57:05.725Z,5.20
2018-08-24T04:59:35.939Z,6.80
2018-08-24T05:02:05.854Z,5.17
2018-08-24T05:04:35.514Z,5.63
2018-08-24T05:07:05.477Z,6.67
2018-08-24T05:09:35.291Z,6.33
2018-08-24T05:12:05.545Z,7.93
2018-08-24T05:14:35.455Z,5.30
2018-08-24T05:17:05.513Z,7.17
2018-08-24T05:19:35.471Z,6.03
2018-08-24T05:22:05.509Z,7.63
2018-08-24T05:24:35.462Z,5.57
2018-08-24T05:27:05.542Z,7.67
2018-08-24T05:29:35.605Z,6.70
2018-08-24T05:32:06.278Z,6.77
2018-08-24T05:34:36.414Z,7.93
2018-08-24T05:37:06.508Z,7.67
2018-08-24T05:39:36.217Z,6.20
2018-08-24T05:42:06.273Z,7.23
2018-08-24T05:44:36.553Z,7.37
2018-08-24T05:47:06.667Z,6.37
2018-08-24T05:49:36.898Z,6.60
2018-08-24T05:52:06.764Z,6.73
2018-08-24T05:54:36.999Z,8.67
2018-08-24T05:57:07.112Z,7.07
2018-08-24T05:59:37.197Z,6.97
2018-08-24T06:02:07.516Z,8.30
2018-08-24T06:04:37.604Z,6.40
2018-08-24T06:07:07.633Z,8.37
2018-08-24T06:09:37.604Z,7.33
2018-08-24T06:12:07.838Z,7.87
2018-08-24T06:14:37.716Z,7.60
2018-08-24T06:17:12.573Z,9.13
2018-08-24T06:19:42.757Z,7.67
2018-08-24T06:22:12.721Z,10.67
2018-08-24T06:24:42.659Z,9.53
2018-08-24T06:27:13.036Z,8.17
2018-08-24T06:29:42.952Z,8.00
2018-08-24T06:32:13.382Z,9.00
2018-08-24T06:34:43.717Z,8.80
2018-08-24T06:37:13.684Z,8.93
2018-08-24T06:39:43.913Z,8.33
2018-08-24T06:42:14.278Z,8.37
2018-08-24T06:44:44.240Z,10.90
2018-08-24T06:47:14.229Z,10.13
2018-08-24T06:49:44.604Z,10.33
2018-08-24T06:52:14.649Z,10.53
2018-08-24T06:54:44.632Z,9.70
2018-08-24T06:57:15.033Z,9.00
2018-08-24T06:59:44.924Z,8.50
2018-08-24T07:02:15.242Z,8.90
2018-08-24T07:04:45.320Z,8.53
2018-08-24T07:07:15.067Z,12.30
2018-08-24T07:09:45.036Z,8.50
2018-08-24T07:12:15.756Z,7.40
2018-08-24T07:14:45.713Z,9.13
2018-08-24T07:17:19.790Z,7.27
2018-08-24T07:19:49.901Z,10.17
2018-08-24T07:22:20.130Z,7.33
2018-08-24T07:24:50.251Z,7.60
2018-08-24T07:27:20.263Z,7.57
2018-08-24T07:29:53.097Z,6.73
2018-08-24T07:32:23.584Z,6.40
2018-08-24T07:34:53.870Z,7.40
2018-08-24T07:37:24.275Z,8.07
2018-08-24T07:39:54.154Z,6.73
2018-08-24T07:42:24.602Z,7.10
2018-08-24T07:44:55.500Z,7.67
2018-08-24T07:47:25.951Z,6.77
2018-08-24T07:49:56.682Z,6.70
2018-08-24T07:52:26.988Z,6.97
2018-08-24T07:54:57.196Z,6.50
2018-08-24T07:57:27.270Z,7.10
2018-08-24T07:59:57.612Z,6.73
2018-08-24T08:02:33.111Z,6.90
2018-08-24T08:05:03.943Z,7.27
2018-08-24T08:07:33.732Z,7.33
2018-08-24T08:10:03.593Z,7.37
2018-08-24T08:12:34.066Z,6.97
2018-08-24T08:15:07.986Z,7.20
2018-08-24T08:17:38.781Z,6.33
2018-08-24T08:20:22.212Z,6.03
2018-08-24T08:23:04.197Z,6.30
2018-08-24T08:25:38.162Z,8.17
2018-08-24T08:28:12.873Z,6.20
2018-08-24T08:30:42.917Z,6.73
2018-08-24T08:33:13.578Z,7.37
2018-08-24T08:35:43.617Z,8.47
2018-08-24T08:38:13.866Z,6.67
2018-08-24T08:40:44.444Z,5.97
2018-08-24T08:43:14.719Z,6.37
2018-08-24T08:45:44.533Z,7.37
2018-08-24T08:48:14.420Z,5.63
2018-08-24T08:50:44.455Z,5.27
2018-08-24T08:53:14.390Z,6.93
2018-08-24T08:55:45.927Z,5.93
2018-08-24T08:58:16.166Z,5.63
2018-08-24T09:00:45.689Z,8.20
2018-08-24T09:03:15.639Z,6.57
2018-08-24T09:05:45.655Z,6.43
2018-08-24T09:08:15.378Z,5.93
2018-08-24T09:10:45.386Z,4.93
2018-08-24T09:13:15.703Z,5.20
2018-08-24T09:15:45.213Z,5.20
2018-08-24T09:18:20.025Z,7.13
2018-08-24T09:20:55.088Z,6.37
2018-08-24T09:23:30.348Z,5.20
2018-08-24T09:26:05.257Z,4.50
2018-08-24T09:28:38.378Z,4.70
2018-08-24T09:31:17.748Z,3.80
2018-08-24T09:33:48.392Z,6.33
2018-08-24T09:36:20.088Z,4.17
2018-08-24T09:38:51.231Z,4.77
2018-08-24T09:41:21.250Z,4.07
2018-08-24T09:43:56.200Z,4.57
2018-08-24T09:46:31.434Z,4.17
2018-08-24T09:49:06.630Z,4.20
2018-08-24T09:51:36.850Z,4.23
2018-08-24T09:54:07.669Z,4.47
2018-08-24T09:56:38.971Z,4.07
2018-08-24T09:59:08.958Z,4.37
2018-08-24T10:01:43.562Z,4.40
2018-08-24T10:04:19.565Z,4.13
2018-08-24T10:06:54.804Z,4.30
2018-08-24T10:09:25.029Z,3.87
2018-08-24T10:11:55.348Z,4.00
2018-08-24T10:14:25.315Z,4.30
2018-08-24T10:16:55.886Z,4.00
2018-08-24T10:19:26.099Z,5.60
2018-08-24T10:21:56.772Z,4.70
2018-08-24T10:24:26.916Z,7.87
2018-08-24T10:26:56.983Z,3.93
2018-08-24T10:29:27.452Z,4.23
2018-08-24T10:31:59.070Z,4.13
2018-08-24T10:34:29.565Z,3.80
2018-08-24T10:37:00.388Z,3.97
2018-08-24T10:39:30.612Z,3.70
2018-08-24T10:42:00.599Z,3.70
2018-08-24T10:44:42.956Z,3.60
2018-08-24T10:47:13.008Z,2.40
2018-08-24T10:49:43.301Z,2.50
2018-08-24T10:52:14.292Z,2.43
2018-08-24T10:54:44.528Z,2.60
2018-08-24T10:57:15.426Z,2.40
2018-08-24T10:59:45.155Z,3.00
2018-08-24T11:02:16.777Z,2.60
2018-08-24T11:04:46.919Z,3.10
2018-08-24T11:07:17.229Z,3.13
2018-08-24T11:09:47.293Z,3.63
2018-08-24T11:12:17.418Z,2.67
2018-08-24T11:14:47.726Z,3.40
2018-08-24T11:17:17.508Z,3.47
2018-08-24T11:19:47.382Z,3.30
2018-08-24T11:22:17.734Z,3.17
2018-08-24T11:24:47.727Z,3.37
2018-08-24T11:27:17.707Z,2.90
2018-08-24T11:29:57.423Z,3.00
2018-08-24T11:32:27.224Z,2.77
2018-08-24T11:35:00.038Z,2.90
2018-08-24T11:37:30.019Z,2.63
2018-08-24T11:40:01.305Z,2.70
2018-08-24T11:42:31.591Z,2.73
2018-08-24T11:45:01.255Z,2.50
2018-08-24T11:47:31.658Z,2.57
2018-08-24T11:50:02.675Z,2.20
2018-08-24T11:52:32.550Z,2.40
2018-08-24T11:55:02.446Z,2.50
2018-08-24T11:57:33.890Z,2.17
2018-08-24T12:00:03.708Z,2.37
2018-08-24T12:02:33.572Z,1.50
2018-08-24T12:05:03.851Z,1.70
2018-08-24T12:07:49.799Z,1.70
2018-08-24T12:10:20.884Z,2.03
2018-08-24T12:12:51.117Z,2.23
2018-08-24T12:15:21.371Z,1.90
2018-08-24T12:17:51.717Z,2.00
2018-08-24T12:20:21.813Z,2.90
2018-08-24T12:22:55.994Z,2.00
2018-08-24T12:25:26.424Z,2.30
2018-08-24T12:27:57.518Z,2.40
2018-08-24T12:30:27.515Z,2.13
2018-08-24T12:32:57.350Z,2.37
2018-08-24T12:35:27.786Z,2.53
2018-08-24T12:37:58.631Z,2.27
2018-08-24T12:40:28.828Z,2.27
2018-08-24T12:42:59.048Z,2.10
2018-08-24T12:45:33.460Z,2.40
2018-08-24T12:48:05.318Z,3.90
2018-08-24T12:50:35.105Z,2.40
2018-08-24T12:53:05.075Z,2.73
2018-08-24T12:55:34.887Z,3.80
2018-08-24T12:58:05.609Z,2.43
2018-08-24T13:00:35.754Z,4.43
2018-08-24T13:03:28.676Z,2.80
2018-08-24T13:05:58.338Z,3.10
2018-08-24T13:08:28.160Z,2.40
2018-08-24T13:10:58.420Z,2.97
2018-08-24T13:13:28.074Z,3.17
2018-08-24T13:15:58.329Z,3.47
2018-08-24T13:18:28.336Z,2.23
2018-08-24T13:20:58.236Z,2.77
2018-08-24T13:23:28.741Z,2.23
2018-08-24T13:25:58.973Z,2.23
2018-08-24T13:28:28.582Z,3.00
2018-08-24T13:30:58.865Z,4.97
2018-08-24T13:33:28.674Z,3.53
2018-08-24T13:35:59.360Z,2.87
2018-08-24T13:38:29.370Z,3.10
2018-08-24T13:40:59.124Z,2.47
2018-08-24T13:43:31.490Z,4.57
2018-08-24T13:46:01.694Z,3.53
2018-08-24T13:48:31.643Z,3.43
2018-08-24T13:51:01.479Z,3.50
2018-08-24T13:53:31.549Z,3.50
2018-08-24T13:56:01.697Z,5.60
2018-08-24T13:58:31.632Z,3.90
2018-08-24T14:01:01.898Z,3.30
2018-08-24T14:03:59.292Z,4.17
2018-08-24T14:06:29.401Z,3.47
2018-08-24T14:08:59.813Z,3.83
2018-08-24T14:11:29.840Z,5.17
2018-08-24T20:05:36.284Z,2.67
2018-08-24T20:08:11.095Z,3.20
2018-08-24T20:10:40.912Z,3.10
2018-08-24T20:13:10.213Z,3.03
2018-08-24T20:15:45.173Z,2.60
2018-08-24T20:18:14.851Z,6.37
2018-08-24T20:20:45.210Z,2.73
2018-08-24T20:23:14.872Z,2.80
2018-08-24T20:25:44.490Z,2.63
2018-08-24T20:28:14.547Z,2.50
2018-08-24T20:30:43.974Z,2.60
2018-08-24T20:33:13.703Z,2.40
2018-08-24T20:35:43.319Z,2.80
2018-08-24T20:38:12.910Z,3.07
2018-08-24T20:40:42.783Z,4.50
2018-08-24T20:43:12.430Z,3.73
2018-08-24T20:45:42.070Z,3.77
2018-08-24T20:48:12.341Z,2.77
2018-08-24T20:50:41.750Z,2.77
2018-08-24T20:53:11.389Z,4.33
2018-08-24T20:55:41.428Z,4.50
2018-08-24T20:58:11.219Z,4.27
2018-08-24T21:00:41.692Z,4.63
2018-08-24T21:03:11.395Z,3.30
2018-08-24T21:05:41.576Z,2.60
2018-08-24T21:08:11.292Z,2.70
2018-08-24T21:10:40.995Z,2.50
2018-08-24T21:13:10.680Z,2.80
2018-08-24T21:15:40.639Z,2.90
2018-08-24T21:18:10.273Z,5.63
2018-08-24T21:20:39.907Z,3.30
2018-08-24T21:23:10.079Z,2.80
2018-08-24T21:25:39.634Z,2.70
2018-08-24T21:28:09.003Z,2.77
2018-08-24T21:30:39.214Z,3.73
2018-08-24T21:33:08.762Z,3.83
2018-08-24T21:35:39.062Z,3.40
2018-08-24T21:38:09.226Z,4.00
2018-08-24T21:40:38.787Z,3.73
2018-08-24T21:43:08.443Z,3.93
2018-08-24T21:45:38.500Z,2.80
2018-08-24T21:48:07.867Z,2.60
2018-08-24T21:50:37.439Z,4.00
2018-08-24T21:53:07.501Z,3.80
2018-08-24T21:55:37.191Z,2.67
2018-08-24T21:58:07.246Z,2.80
2018-08-24T22:00:42.550Z,5.90
2018-08-24T22:03:13.393Z,3.67
2018-08-24T22:05:43.618Z,2.90
2018-08-24T22:08:13.521Z,2.90
2018-08-24T22:10:43.309Z,5.00
2018-08-24T22:13:13.454Z,4.73
2018-08-24T22:15:42.909Z,3.23
2018-08-24T22:18:12.714Z,2.93
2018-08-24T22:20:42.380Z,5.00
2018-08-24T22:23:11.781Z,3.30
2018-08-24T22:25:41.292Z,3.10
2018-08-24T22:28:11.458Z,3.57
2018-08-24T22:30:40.973Z,7.23
2018-08-24T22:33:10.619Z,3.00
2018-08-24T22:35:40.739Z,3.73
2018-08-24T22:38:10.333Z,2.70
2018-08-24T22:40:39.963Z,4.37
2018-08-24T22:43:40.645Z,2.90
2018-08-24T22:46:10.284Z,3.17
2018-08-24T22:48:40.692Z,3.73
2018-08-24T22:51:10.636Z,3.23
2018-08-24T22:53:40.356Z,3.33
2018-08-24T22:56:10.362Z,2.90
2018-08-24T22:58:40.067Z,2.40
2018-08-24T23:01:09.755Z,2.73
2018-08-24T23:03:39.657Z,3.30
2018-08-24T23:06:09.615Z,4.73
2018-08-24T23:08:39.234Z,2.80
2018-08-24T23:11:09.294Z,4.47
2018-08-24T23:13:38.850Z,5.00
2018-08-24T23:16:08.557Z,6.47
2018-08-24T23:18:38.744Z,4.33
2018-08-24T23:21:08.487Z,3.33
2018-08-24T23:23:38.278Z,3.77
2018-08-24T23:26:08.370Z,4.67
2018-08-24T23:28:37.920Z,3.30
2018-08-24T23:31:07.924Z,4.03
2018-08-24T23:33:37.548Z,3.17
2018-08-24T23:36:07.316Z,3.17
2018-08-24T23:38:36.987Z,3.53
2018-08-24T23:41:06.935Z,3.03
2018-08-24T23:43:36.604Z,3.23
2018-08-24T23:46:06.453Z,2.87
2018-08-24T23:48:36.423Z,5.80
2018-08-24T23:51:06.184Z,3.73
2018-08-24T23:53:35.743Z,5.90
2018-08-24T23:56:05.410Z,2.47
2018-08-24T23:58:35.122Z,4.53
